Time;durP1;ratioP1;P1;durP2;ratioP2;P2;SDS_P1;SDS_P2;PMS_P1;PMS_P2;Temp;Humidity;BMP_temperature;BMP_pressure;BME280_temperature;BME280_humidity;BME280_pressure;Samples;Min_cycle;Max_cycle;Signal;HPM_P1;HPM_P2
2021/09/21 00:00:55;;;;;;;7.03;4.80;;;13.70;99.90;;;;;;1841633;76;21487;-76
2021/09/21 00:03:22;;;;;;;7.28;4.78;;;13.70;99.90;;;;;;1842948;77;21537;-75
2021/09/21 00:05:48;;;;;;;6.15;5.05;;;13.70;99.90;;;;;;1842513;76;21523;-76
2021/09/21 00:08:14;;;;;;;6.67;5.00;;;13.70;99.90;;;;;;1843021;76;21479;-76
2021/09/21 00:10:40;;;;;;;8.10;5.58;;;13.70;99.90;;;;;;1842054;78;21099;-76
2021/09/21 00:13:06;;;;;;;6.00;5.40;;;13.70;99.90;;;;;;1841566;76;21119;-76
2021/09/21 00:15:32;;;;;;;7.65;4.95;;;13.70;99.90;;;;;;1842586;77;21099;-76
2021/09/21 00:17:58;;;;;;;8.08;5.45;;;13.70;99.90;;;;;;1842321;78;21186;-75
2021/09/21 00:20:25;;;;;;;6.80;5.03;;;13.70;99.90;;;;;;1844132;76;21168;-76
2021/09/21 00:22:51;;;;;;;7.83;5.40;;;13.70;99.90;;;;;;1842696;78;21103;-76
2021/09/21 00:25:17;;;;;;;5.35;4.83;;;13.70;99.90;;;;;;1841600;76;21523;-76
2021/09/21 00:27:43;;;;;;;5.60;4.92;;;13.70;99.90;;;;;;1842711;77;21513;-76
2021/09/21 00:30:09;;;;;;;5.70;4.85;;;13.70;99.90;;;;;;1843800;78;21600;-76
2021/09/21 00:32:35;;;;;;;5.35;4.85;;;13.70;99.90;;;;;;1842269;77;21161;-76
2021/09/21 00:35:02;;;;;;;6.67;4.42;;;13.70;99.90;;;;;;1842345;76;21161;-76
2021/09/21 00:37:28;;;;;;;5.78;4.92;;;13.70;99.90;;;;;;1842067;77;21083;-76
2021/09/21 00:39:54;;;;;;;7.17;5.55;;;13.80;99.90;;;;;;1843025;76;21091;-75
2021/09/21 00:42:20;;;;;;;5.47;4.37;;;13.80;99.90;;;;;;1842981;76;21165;-76
2021/09/21 00:44:46;;;;;;;6.55;5.10;;;13.80;99.90;;;;;;1841899;78;21134;-76
2021/09/21 00:47:12;;;;;;;6.72;4.97;;;13.80;99.90;;;;;;1841685;76;21063;-76
2021/09/21 00:49:38;;;;;;;11.08;5.30;;;13.80;99.90;;;;;;1843011;76;21095;-76
2021/09/21 00:52:04;;;;;;;5.10;4.58;;;13.80;99.90;;;;;;1841650;76;21087;-76
2021/09/21 00:54:31;;;;;;;6.60;4.62;;;13.70;99.90;;;;;;1842186;77;21193;-75
2021/09/21 00:56:57;;;;;;;6.25;4.75;;;13.80;99.90;;;;;;1843031;78;21249;-76
2021/09/21 00:59:23;;;;;;;5.37;4.85;;;13.80;99.90;;;;;;1843571;78;21158;-76
2021/09/21 01:01:49;;;;;;;5.65;4.40;;;13.70;99.90;;;;;;1841468;78;21143;-76
2021/09/21 01:04:15;;;;;;;8.05;4.45;;;13.80;99.90;;;;;;1842577;78;21557;-76
2021/09/21 01:06:41;;;;;;;6.00;4.37;;;13.70;99.90;;;;;;1842188;77;21444;-76
2021/09/21 01:09:07;;;;;;;7.85;4.85;;;13.70;99.90;;;;;;1843928;78;21532;-76
2021/09/21 01:11:33;;;;;;;8.38;4.75;;;13.70;99.90;;;;;;1842613;78;21605;-76
2021/09/21 01:14:00;;;;;;;6.65;4.72;;;13.80;99.90;;;;;;1841467;76;21677;-76
2021/09/21 01:16:26;;;;;;;5.55;4.58;;;13.80;99.90;;;;;;1843086;76;21483;-76
2021/09/21 01:18:52;;;;;;;5.47;4.92;;;13.80;99.90;;;;;;1842898;78;21087;-75
2021/09/21 01:21:18;;;;;;;8.10;4.50;;;13.70;99.90;;;;;;1843520;78;21087;-76
2021/09/21 01:23:44;;;;;;;5.87;4.83;;;13.70;99.90;;;;;;1843001;78;21161;-76
2021/09/21 01:26:10;;;;;;;8.20;5.60;;;13.70;99.90;;;;;;1842504;76;21237;-76
2021/09/21 01:28:36;;;;;;;5.40;4.30;;;13.70;99.90;;;;;;1842647;76;21091;-76
2021/09/21 01:31:02;;;;;;;7.12;4.85;;;13.60;99.90;;;;;;1843773;76;21091;-76
2021/09/21 01:33:29;;;;;;;5.95;4.65;;;13.70;99.90;;;;;;1842548;76;21090;-76
2021/09/21 01:35:55;;;;;;;6.40;4.42;;;13.70;99.90;;;;;;1843402;78;21094;-76
2021/09/21 01:38:21;;;;;;;5.20;4.33;;;13.60;99.90;;;;;;1842126;78;21090;-76
2021/09/21 01:40:47;;;;;;;5.42;4.53;;;13.60;99.90;;;;;;1842923;76;21099;-76
2021/09/21 01:43:13;;;;;;;5.70;5.10;;;13.70;99.90;;;;;;1841975;78;21106;-77
2021/09/21 01:45:39;;;;;;;5.10;4.58;;;13.60;99.90;;;;;;1842340;78;21098;-76
2021/09/21 01:48:05;;;;;;;4.87;4.22;;;13.60;99.90;;;;;;1843045;78;21505;-76
2021/09/21 01:50:42;;;;;;;14.20;4.58;;;13.50;99.90;;;;;;1842729;77;21463;-76
2021/09/21 01:58:46;;;;;;;5.78;4.20;;;13.60;99.90;;;;;;1842093;77;21452;-76
2021/09/21 02:00:43;;;;;;;6.55;4.47;;;13.70;99.90;;;;;;1838012;76;21468;-76
2021/09/21 02:03:09;;;;;;;5.62;4.33;;;13.60;99.90;;;;;;1841498;78;21510;-76
2021/09/21 02:05:35;;;;;;;4.85;4.10;;;13.60;99.90;;;;;;1836602;78;21507;-76
2021/09/21 02:10:45;;;;;;;7.92;4.25;;;13.50;99.90;;;;;;1842484;78;21275;-76
2021/09/21 02:13:11;;;;;;;4.00;3.65;;;13.50;99.90;;;;;;1841536;76;21091;-76
2021/09/21 02:15:37;;;;;;;5.12;4.12;;;13.50;99.90;;;;;;1843439;78;21087;-76
2021/09/21 02:18:05;;;;;;;5.40;4.78;;;13.50;99.90;;;;;;1841556;77;21091;-76
2021/09/21 02:20:31;;;;;;;6.10;4.40;;;13.50;99.90;;;;;;1845298;77;21099;-76
2021/09/21 02:22:57;;;;;;;5.15;4.58;;;13.40;99.90;;;;;;1842169;77;21098;-76
2021/09/21 02:25:24;;;;;;;7.30;4.37;;;13.40;99.90;;;;;;1841540;76;21161;-76
2021/09/21 02:27:50;;;;;;;8.53;4.67;;;13.40;99.90;;;;;;1843204;77;21095;-75
2021/09/21 02:30:16;;;;;;;5.83;4.90;;;13.50;99.90;;;;;;1842221;78;21153;-76
2021/09/21 02:32:42;;;;;;;4.40;4.00;;;13.50;99.90;;;;;;1842702;77;21165;-76
2021/09/21 02:35:09;;;;;;;7.92;4.40;;;13.50;99.90;;;;;;1842830;77;21572;-76
2021/09/21 02:37:35;;;;;;;5.08;4.47;;;13.50;99.90;;;;;;1841874;78;21505;-76
2021/09/21 02:40:01;;;;;;;5.30;4.80;;;13.40;99.90;;;;;;1842967;78;21087;-76
2021/09/21 02:42:27;;;;;;;5.60;4.90;;;13.40;99.90;;;;;;1842244;78;21130;-76
2021/09/21 02:44:53;;;;;;;6.50;4.95;;;13.40;99.90;;;;;;1841533;76;21095;-76
2021/09/21 02:47:19;;;;;;;5.17;4.55;;;13.40;99.90;;;;;;1843200;77;21091;-76
2021/09/21 02:49:45;;;;;;;6.35;4.70;;;13.50;99.90;;;;;;1841570;76;21093;-76
2021/09/21 02:52:12;;;;;;;4.55;4.15;;;13.50;99.90;;;;;;1842730;78;21091;-76
2021/09/21 02:54:38;;;;;;;6.83;4.62;;;13.40;99.90;;;;;;1843282;77;21202;-76
2021/09/21 02:57:04;;;;;;;4.87;4.42;;;13.40;99.90;;;;;;1844440;78;21099;-76
2021/09/21 02:59:30;;;;;;;6.90;5.00;;;13.30;99.90;;;;;;1842998;76;21176;-74
2021/09/21 03:01:56;;;;;;;5.60;4.95;;;13.30;99.90;;;;;;1842657;78;21501;-75
2021/09/21 03:04:29;;;;;;;7.87;4.78;;;13.30;99.90;;;;;;1843482;77;21581;-75
2021/09/21 03:06:53;;;;;;;6.95;4.92;;;13.30;99.90;;;;;;1838651;78;21087;-75
2021/09/21 03:09:35;;;;;;;9.05;4.67;;;13.30;99.90;;;;;;1842821;78;21079;-75
2021/09/21 03:11:55;;;;;;;6.65;4.83;;;13.50;99.90;;;;;;1838433;77;21512;-75
2021/09/21 03:17:09;;;;;;;6.53;4.85;;;13.40;99.90;;;;;;1843424;78;21169;-76
2021/09/21 03:19:34;;;;;;;9.35;4.47;;;13.40;99.90;;;;;;1842288;76;21194;-76
2021/09/21 03:22:00;;;;;;;5.00;4.45;;;13.40;99.90;;;;;;1842213;76;21086;-76
2021/09/21 03:24:26;;;;;;;8.55;4.62;;;13.40;99.90;;;;;;1842127;77;21102;-76
2021/09/21 03:26:53;;;;;;;6.20;4.95;;;13.30;99.90;;;;;;1842178;76;21099;-75
2021/09/21 03:29:19;;;;;;;6.37;5.03;;;13.20;99.90;;;;;;1843389;78;21445;-76
2021/09/21 03:31:45;;;;;;;9.13;4.97;;;13.20;99.90;;;;;;1843243;76;21455;-76
2021/09/21 03:34:11;;;;;;;5.53;4.55;;;13.30;99.90;;;;;;1842606;77;21499;-76
2021/09/21 03:36:37;;;;;;;5.53;4.72;;;13.40;99.90;;;;;;1843471;78;21565;-75
2021/09/21 03:39:03;;;;;;;5.22;4.40;;;13.40;99.90;;;;;;1841716;76;21483;-76
2021/09/21 03:41:29;;;;;;;10.43;5.22;;;13.40;99.90;;;;;;1844351;78;21632;-76
2021/09/21 03:43:55;;;;;;;9.55;4.37;;;13.40;99.90;;;;;;1842636;78;21483;-76
2021/09/21 03:46:22;;;;;;;5.42;4.87;;;13.30;99.90;;;;;;1842625;78;21091;-76
2021/09/21 03:48:48;;;;;;;6.17;4.85;;;13.30;99.90;;;;;;1842586;77;21079;-76
2021/09/21 03:51:14;;;;;;;7.53;5.03;;;13.30;99.90;;;;;;1842494;76;21075;-75
2021/09/21 03:53:40;;;;;;;5.78;4.72;;;13.30;99.90;;;;;;1842077;78;21123;-76
2021/09/21 03:56:06;;;;;;;8.88;4.97;;;13.40;99.90;;;;;;1843566;78;21094;-76
2021/09/21 03:58:32;;;;;;;4.95;4.53;;;13.30;99.90;;;;;;1842511;76;21165;-76
2021/09/21 04:00:58;;;;;;;7.50;4.80;;;13.40;99.90;;;;;;1842550;76;21173;-76
2021/09/21 04:03:24;;;;;;;5.65;5.15;;;13.40;99.90;;;;;;1841571;78;21068;-76
2021/09/21 04:05:51;;;;;;;6.22;5.30;;;13.30;99.90;;;;;;1841624;76;21102;-76
2021/09/21 04:08:17;;;;;;;5.97;4.90;;;13.30;99.90;;;;;;1842101;76;21087;-76
2021/09/21 04:10:43;;;;;;;5.70;4.78;;;13.30;99.90;;;;;;1842107;76;21099;-76
2021/09/21 04:13:09;;;;;;;6.05;4.83;;;13.30;99.90;;;;;;1843035;78;21064;-76
2021/09/21 04:15:35;;;;;;;6.00;5.00;;;13.20;99.90;;;;;;1843083;78;21086;-76
2021/09/21 04:18:08;;;;;;;5.58;4.80;;;13.30;99.90;;;;;;1842099;78;21087;-75
2021/09/21 04:20:29;;;;;;;8.83;5.30;;;13.20;99.90;;;;;;1840175;78;21127;-76
2021/09/21 04:22:55;;;;;;;5.45;4.37;;;13.20;99.90;;;;;;1841797;78;21060;-75
2021/09/21 04:25:21;;;;;;;6.10;4.78;;;13.10;99.90;;;;;;1842110;78;21099;-75
2021/09/21 04:27:48;;;;;;;7.00;5.30;;;13.20;99.90;;;;;;1842929;77;21528;-75
2021/09/21 04:30:20;;;;;;;5.97;4.95;;;13.20;99.90;;;;;;1842648;77;21103;-75
2021/09/21 04:32:42;;;;;;;7.40;5.37;;;13.20;99.90;;;;;;1841357;77;21116;-75
2021/09/21 04:35:08;;;;;;;8.20;5.17;;;13.20;99.90;;;;;;1844579;76;21212;-75
2021/09/21 04:37:34;;;;;;;10.40;5.55;;;13.20;99.90;;;;;;1843409;77;21271;-76
2021/09/21 04:40:00;;;;;;;6.92;5.40;;;13.10;99.90;;;;;;1842598;78;21169;-74
2021/09/21 04:42:26;;;;;;;6.83;5.58;;;13.10;99.90;;;;;;1842608;78;21059;-74
2021/09/21 04:44:53;;;;;;;7.92;6.17;;;13.10;99.90;;;;;;1842004;76;21472;-75
2021/09/21 04:47:19;;;;;;;5.53;4.92;;;13.00;99.90;;;;;;1838913;78;21507;-75
2021/09/21 04:49:45;;;;;;;9.70;5.28;;;13.00;99.90;;;;;;1842529;78;21162;-76
2021/09/21 04:52:11;;;;;;;6.20;5.60;;;13.00;99.90;;;;;;1842857;77;21083;-76
2021/09/21 04:54:37;;;;;;;7.45;6.12;;;13.00;99.90;;;;;;1843955;78;21152;-75
2021/09/21 04:57:03;;;;;;;10.80;5.47;;;12.90;99.90;;;;;;1842508;78;21125;-76
2021/09/21 04:59:29;;;;;;;6.72;5.37;;;12.90;99.90;;;;;;1842003;78;21094;-76
2021/09/21 05:01:55;;;;;;;7.05;5.58;;;12.90;99.90;;;;;;1843207;78;21090;-77
2021/09/21 05:04:22;;;;;;;5.90;5.15;;;12.80;99.90;;;;;;1819312;77;21054;-76
2021/09/21 05:06:48;;;;;;;5.50;4.95;;;12.90;99.90;;;;;;1842192;78;21146;-76
2021/09/21 05:09:15;;;;;;;5.17;4.65;;;12.80;99.90;;;;;;1843488;78;21083;-76
2021/09/21 05:11:41;;;;;;;8.30;5.53;;;12.90;99.90;;;;;;1842503;77;21211;-77
2021/09/21 05:14:09;;;;;;;7.67;5.65;;;12.80;99.90;;;;;;1843200;78;21573;-75
2021/09/21 05:16:35;;;;;;;8.63;5.20;;;12.80;99.90;;;;;;1842495;78;21548;-76
2021/09/21 05:19:01;;;;;;;5.90;5.10;;;12.90;99.90;;;;;;1843094;78;21560;-75
2021/09/21 05:21:27;;;;;;;7.72;5.12;;;12.90;99.90;;;;;;1843322;77;21164;-75
2021/09/21 05:23:53;;;;;;;8.03;5.65;;;12.90;99.90;;;;;;1842519;76;21090;-74
2021/09/21 05:26:19;;;;;;;4.92;4.45;;;12.90;99.90;;;;;;1843100;76;21083;-74
2021/09/21 05:28:47;;;;;;;8.90;5.30;;;12.90;99.90;;;;;;1842205;78;21087;-77
2021/09/21 05:31:13;;;;;;;5.45;4.95;;;12.90;99.90;;;;;;1841658;77;21127;-77
2021/09/21 05:33:39;;;;;;;6.17;4.97;;;12.90;99.90;;;;;;1842060;76;21161;-78
2021/09/21 05:36:05;;;;;;;6.50;5.50;;;12.90;99.90;;;;;;1842221;77;21063;-79
2021/09/21 05:38:34;;;;;;;4.97;4.50;;;12.90;99.90;;;;;;1844052;76;21065;-79
2021/09/21 05:41:00;;;;;;;6.20;4.87;;;12.90;99.90;;;;;;1816423;78;21165;-77
2021/09/21 05:43:26;;;;;;;6.53;5.37;;;13.00;99.90;;;;;;1845957;78;21182;-78
2021/09/21 05:45:52;;;;;;;7.40;5.05;;;13.00;99.90;;;;;;1846135;77;21268;-78
2021/09/21 05:48:19;;;;;;;4.92;4.17;;;13.00;99.90;;;;;;1845672;76;21167;-80
2021/09/21 05:50:45;;;;;;;5.05;4.55;;;13.10;99.90;;;;;;1841794;77;21149;-79
2021/09/21 05:53:12;;;;;;;6.05;4.85;;;13.10;99.90;;;;;;1842566;76;21091;-78
2021/09/21 05:55:39;;;;;;;9.83;5.60;;;13.00;99.90;;;;;;1842048;78;21130;-79
2021/09/21 05:58:07;;;;;;;6.08;5.20;;;13.00;99.90;;;;;;1844330;77;21111;-79
2021/09/21 06:00:35;;;;;;;6.08;5.17;;;13.10;99.90;;;;;;1843483;77;21209;-79
2021/09/21 06:03:02;;;;;;;6.20;5.62;;;13.10;99.90;;;;;;1841583;77;21351;-79
2021/09/21 06:05:30;;;;;;;10.30;5.78;;;13.20;99.90;;;;;;1842543;78;21080;-79
2021/09/21 06:07:58;;;;;;;8.40;6.08;;;13.20;99.90;;;;;;1841399;76;21120;-78
2021/09/21 06:10:24;;;;;;;9.93;6.35;;;13.30;99.90;;;;;;1836894;78;21669;-78
2021/09/21 06:12:50;;;;;;;8.55;6.78;;;13.20;99.90;;;;;;1843409;78;21213;-78
2021/09/21 06:15:18;;;;;;;9.53;6.35;;;13.10;99.90;;;;;;1843197;78;21157;-81
2021/09/21 06:17:44;;;;;;;7.40;6.20;;;13.00;99.90;;;;;;1843048;78;21127;-79
2021/09/21 06:20:10;;;;;;;8.48;7.03;;;13.00;99.90;;;;;;1841433;77;21157;-78
2021/09/21 06:22:36;;;;;;;7.62;5.90;;;13.00;99.90;;;;;;1842222;77;21083;-79
2021/09/21 06:25:03;;;;;;;10.13;6.47;;;13.00;99.90;;;;;;1842115;78;21180;-80
2021/09/21 06:27:29;;;;;;;9.35;6.55;;;13.10;99.90;;;;;;1843426;78;21091;-79
2021/09/21 06:29:56;;;;;;;6.78;5.67;;;13.10;99.90;;;;;;1843629;77;21448;-81
2021/09/21 06:32:22;;;;;;;6.75;5.50;;;13.10;99.90;;;;;;1841420;76;21596;-81
2021/09/21 06:34:48;;;;;;;7.87;5.45;;;13.00;99.90;;;;;;1842532;77;21503;-80
2021/09/21 06:37:14;;;;;;;9.93;5.78;;;13.00;99.90;;;;;;1842256;78;21553;-79
2021/09/21 06:39:40;;;;;;;5.95;4.95;;;13.00;99.90;;;;;;1841722;77;21075;-79
2021/09/21 06:42:08;;;;;;;6.20;5.25;;;13.10;99.90;;;;;;1845156;76;21110;-78
2021/09/21 06:44:42;;;;;;;8.95;5.22;;;13.10;99.90;;;;;;1843002;77;21099;-79
2021/09/21 06:47:08;;;;;;;6.62;5.30;;;13.20;99.90;;;;;;1842568;77;21456;-80
2021/09/21 06:49:35;;;;;;;7.95;5.28;;;13.20;99.90;;;;;;1842723;78;21160;-81
2021/09/21 06:52:03;;;;;;;7.22;5.85;;;13.30;99.90;;;;;;1844291;77;21078;-80
2021/09/21 06:54:31;;;;;;;7.85;6.25;;;13.50;99.90;;;;;;1840894;77;21127;-79
2021/09/21 06:56:57;;;;;;;7.90;5.97;;;13.50;99.90;;;;;;1842780;76;21190;-80
2021/09/21 06:59:23;;;;;;;11.03;6.40;;;13.60;99.90;;;;;;1842414;77;21161;-78
2021/09/21 07:01:49;;;;;;;7.12;6.20;;;13.70;99.90;;;;;;1842695;78;21098;-77
2021/09/21 07:04:17;;;;;;;5.28;4.20;;;13.90;99.90;;;;;;1842574;77;21087;-76
2021/09/21 07:06:43;;;;;;;6.55;4.40;;;13.80;99.90;;;;;;1842512;78;21169;-82
2021/09/21 07:09:09;;;;;;;6.37;4.05;;;13.80;99.90;;;;;;1844854;76;21064;-78
2021/09/21 07:11:35;;;;;;;5.17;4.00;;;13.90;99.90;;;;;;1842393;78;21091;-83
2021/09/21 07:14:02;;;;;;;3.87;3.40;;;14.00;99.90;;;;;;1841995;77;21086;-79
2021/09/21 07:16:28;;;;;;;4.53;4.12;;;14.10;99.90;;;;;;1842983;76;21068;-76
2021/09/21 07:18:54;;;;;;;6.22;4.90;;;14.30;99.90;;;;;;1843128;77;21169;-76
2021/09/21 07:21:20;;;;;;;5.65;5.15;;;14.40;99.90;;;;;;1843007;76;21091;-84
2021/09/21 07:23:48;;;;;;;6.25;5.45;;;14.40;99.90;;;;;;1843096;78;21118;-79
2021/09/21 07:26:18;;;;;;;6.15;4.58;;;14.30;99.90;;;;;;1843164;76;21168;-86
2021/09/21 07:28:42;;;;;;;7.10;5.22;;;14.30;99.90;;;;;;1840193;78;21697;-80
2021/09/21 07:31:09;;;;;;;8.03;4.78;;;14.50;99.90;;;;;;1842961;77;21523;-82
2021/09/21 07:33:35;;;;;;;4.65;4.25;;;14.50;99.90;;;;;;1842269;76;21290;-82
2021/09/21 07:36:01;;;;;;;6.92;4.47;;;14.40;99.90;;;;;;1843305;78;21138;-82
2021/09/21 07:38:29;;;;;;;6.25;5.42;;;14.60;99.90;;;;;;1841681;77;21075;-82
2021/09/21 07:40:55;;;;;;;6.17;5.03;;;14.70;99.90;;;;;;1842651;77;21088;-81
2021/09/21 07:43:21;;;;;;;10.65;4.60;;;14.90;99.90;;;;;;1843659;78;21170;-79
2021/09/21 07:45:47;;;;;;;6.87;5.10;;;14.80;99.90;;;;;;1842992;78;21075;-76
2021/09/21 07:48:18;;;;;;;8.65;5.78;;;14.90;99.90;;;;;;1843212;78;21083;-78
2021/09/21 07:50:41;;;;;;;6.15;5.45;;;15.10;99.90;;;;;;1842495;77;21585;-77
2021/09/21 07:53:07;;;;;;;9.90;5.83;;;15.30;99.90;;;;;;1843878;77;21511;-79
2021/09/21 07:55:33;;;;;;;7.33;5.58;;;15.50;99.90;;;;;;1843542;76;21093;-78
2021/09/21 07:58:00;;;;;;;7.15;5.17;;;15.70;99.90;;;;;;1843793;76;21083;-79
2021/09/21 08:00:27;;;;;;;13.70;8.45;;;15.80;99.90;;;;;;1841980;76;21090;-81
2021/09/21 08:02:53;;;;;;;8.23;5.03;;;16.00;99.90;;;;;;1842247;78;21098;-80
2021/09/21 08:05:20;;;;;;;5.20;4.67;;;16.10;99.90;;;;;;1843567;78;21138;-80
2021/09/21 08:07:46;;;;;;;6.20;4.92;;;16.20;99.90;;;;;;1842640;76;21095;-80
2021/09/21 08:10:14;;;;;;;6.97;4.70;;;16.40;99.90;;;;;;1842065;78;21169;-79
2021/09/21 08:12:40;;;;;;;8.15;4.65;;;16.50;99.90;;;;;;1842203;78;21091;-80
2021/09/21 08:15:06;;;;;;;4.70;4.25;;;16.50;99.90;;;;;;1843175;76;21098;-81
2021/09/21 08:17:32;;;;;;;5.35;4.20;;;16.70;99.90;;;;;;1843524;77;21165;-79
2021/09/21 08:19:58;;;;;;;6.28;4.58;;;16.70;99.90;;;;;;1842352;77;21138;-79
2021/09/21 08:22:26;;;;;;;5.12;4.47;;;16.50;99.90;;;;;;1841745;76;21515;-80
2021/09/21 08:24:52;;;;;;;6.10;4.10;;;16.30;99.90;;;;;;1843632;76;21106;-79
2021/09/21 08:27:18;;;;;;;5.87;4.58;;;16.40;99.90;;;;;;1844431;78;21242;-79
2021/09/21 08:29:47;;;;;;;6.65;3.65;;;16.40;99.90;;;;;;1844806;78;21086;-77
2021/09/21 08:32:12;;;;;;;5.33;4.20;;;15.80;99.90;;;;;;1843145;77;21116;-77
2021/09/21 08:34:38;;;;;;;3.60;3.30;;;15.80;99.90;;;;;;1842689;77;21086;-77
2021/09/21 08:37:04;;;;;;;6.42;3.50;;;15.90;99.90;;;;;;1842173;78;21165;-79
2021/09/21 08:39:31;;;;;;;4.20;3.80;;;15.80;99.90;;;;;;1842613;76;21063;-79
2021/09/21 08:41:57;;;;;;;4.22;3.80;;;15.90;99.90;;;;;;1842580;77;21087;-77
2021/09/21 08:44:24;;;;;;;4.95;3.45;;;16.00;99.90;;;;;;1843606;76;21168;-78
2021/09/21 08:46:50;;;;;;;3.67;3.30;;;16.20;99.90;;;;;;1843744;77;21165;-78
2021/09/21 08:49:17;;;;;;;3.67;3.35;;;16.30;99.90;;;;;;1843070;76;21135;-79
2021/09/21 08:51:43;;;;;;;6.53;4.03;;;16.50;99.90;;;;;;1842443;78;21514;-78
2021/09/21 08:54:09;;;;;;;4.65;3.72;;;16.20;99.90;;;;;;1818340;78;21122;-79
2021/09/21 08:56:35;;;;;;;3.72;3.40;;;16.70;99.90;;;;;;1845173;77;21493;-77
2021/09/21 08:59:03;;;;;;;5.33;3.47;;;16.80;99.90;;;;;;1842912;78;21087;-78
2021/09/21 09:01:29;;;;;;;4.83;3.08;;;17.10;99.90;;;;;;1844317;76;21183;-78
2021/09/21 09:03:55;;;;;;;4.67;3.45;;;17.40;99.90;;;;;;1843936;77;21087;-79
2021/09/21 09:06:21;;;;;;;4.67;3.27;;;17.40;99.90;;;;;;1844859;78;21112;-78
2021/09/21 09:08:53;;;;;;;4.87;3.40;;;17.50;99.90;;;;;;1844333;76;21103;-79
2021/09/21 09:11:19;;;;;;;3.35;3.05;;;17.90;99.90;;;;;;1843528;76;21242;-79
2021/09/21 09:13:47;;;;;;;4.65;3.35;;;17.90;99.90;;;;;;1843270;78;21503;-78
2021/09/21 09:16:13;;;;;;;5.30;3.75;;;17.70;99.90;;;;;;1843607;76;21087;-79
2021/09/21 09:18:40;;;;;;;4.05;3.02;;;18.20;99.90;;;;;;1842571;78;21182;-79
2021/09/21 09:21:06;;;;;;;3.77;3.30;;;18.10;99.90;;;;;;1820338;77;21144;-79
2021/09/21 09:23:32;;;;;;;9.58;3.50;;;17.30;99.90;;;;;;1842151;77;21161;-78
2021/09/21 09:25:58;;;;;;;3.70;3.40;;;17.30;99.90;;;;;;1843722;76;21177;-78
2021/09/21 09:28:25;;;;;;;3.17;2.85;;;17.80;99.90;;;;;;1843592;78;21102;-80
2021/09/21 09:30:52;;;;;;;4.55;3.08;;;17.50;99.90;;;;;;1842303;76;21102;-80
2021/09/21 09:33:18;;;;;;;2.92;2.65;;;17.30;99.90;;;;;;1843154;78;21072;-77
2021/09/21 09:35:45;;;;;;;3.05;2.75;;;18.00;99.90;;;;;;1843255;77;21063;-79
2021/09/21 09:38:11;;;;;;;4.40;3.12;;;18.40;99.90;;;;;;1844109;77;21091;-79
2021/09/21 09:40:37;;;;;;;3.30;3.00;;;18.40;99.90;;;;;;1843035;76;21087;-79
2021/09/21 09:43:03;;;;;;;3.95;2.98;;;18.10;99.90;;;;;;1844058;78;21170;-79
2021/09/21 09:45:29;;;;;;;3.08;2.75;;;17.30;99.90;;;;;;1842184;76;21142;-79
2021/09/21 09:47:55;;;;;;;4.30;3.22;;;17.50;99.90;;;;;;1844069;76;21116;-79
2021/09/21 09:50:21;;;;;;;4.80;3.12;;;17.70;99.90;;;;;;1812783;78;21153;-80
2021/09/21 09:52:47;;;;;;;4.30;3.37;;;17.40;99.90;;;;;;1842071;77;21091;-79
2021/09/21 09:55:14;;;;;;;3.37;3.10;;;17.50;99.90;;;;;;1843212;78;21072;-79
2021/09/21 09:57:40;;;;;;;3.55;3.15;;;17.40;99.90;;;;;;1841953;76;21488;-80
2021/09/21 10:00:06;;;;;;;3.02;2.80;;;18.20;99.90;;;;;;1843080;77;21137;-78
2021/09/21 10:02:33;;;;;;;3.52;3.22;;;18.30;99.90;;;;;;1842028;76;21215;-79
2021/09/21 10:04:59;;;;;;;4.45;3.30;;;18.40;99.90;;;;;;1843026;77;21102;-80
2021/09/21 10:07:25;;;;;;;4.92;2.52;;;18.70;99.90;;;;;;1843452;78;21169;-79
2021/09/21 10:09:51;;;;;;;2.92;2.72;;;19.20;99.90;;;;;;1842064;78;21637;-79
2021/09/21 10:12:17;;;;;;;4.08;2.72;;;19.00;99.90;;;;;;1843745;76;21491;-79
2021/09/21 10:14:43;;;;;;;3.52;3.00;;;18.50;99.90;;;;;;1847214;76;21145;-79
2021/09/21 10:17:09;;;;;;;4.55;2.92;;;18.60;99.90;;;;;;1842645;76;21849;-79
2021/09/21 10:19:36;;;;;;;6.20;2.77;;;19.10;99.90;;;;;;1842631;76;21536;-79
2021/09/21 10:22:03;;;;;;;3.85;2.98;;;19.40;99.90;;;;;;1842098;76;21089;-79
2021/09/21 10:24:29;;;;;;;4.28;3.02;;;19.80;99.90;;;;;;1843391;76;21169;-78
2021/09/21 10:26:55;;;;;;;7.17;2.62;;;19.70;99.90;;;;;;1843060;78;21087;-79
2021/09/21 10:29:21;;;;;;;3.55;3.12;;;19.60;99.90;;;;;;1842693;77;21095;-79
2021/09/21 10:31:47;;;;;;;3.30;3.00;;;18.90;99.90;;;;;;1842039;78;21083;-79
2021/09/21 10:34:13;;;;;;;3.25;2.95;;;19.70;99.90;;;;;;1843053;76;21173;-78
2021/09/21 10:36:39;;;;;;;3.70;3.33;;;19.90;99.90;;;;;;1843189;76;21177;-79
2021/09/21 10:39:06;;;;;;;3.70;3.40;;;19.10;99.90;;;;;;1843845;76;21064;-79
2021/09/21 10:41:32;;;;;;;2.92;2.60;;;19.70;99.90;;;;;;1842034;78;21075;-79
2021/09/21 10:43:58;;;;;;;2.70;2.50;;;19.80;99.90;;;;;;1843990;78;21086;-79
2021/09/21 10:46:24;;;;;;;3.20;2.90;;;20.40;99.90;;;;;;1843040;78;21195;-79
2021/09/21 10:48:50;;;;;;;4.28;3.15;;;20.50;99.90;;;;;;1842157;76;21096;-79
2021/09/21 10:51:16;;;;;;;2.72;2.52;;;20.50;99.90;;;;;;1841548;78;21161;-79
2021/09/21 10:53:42;;;;;;;5.62;3.62;;;20.60;99.90;;;;;;1842153;78;21067;-77
2021/09/21 10:56:09;;;;;;;2.90;2.70;;;20.90;99.90;;;;;;1841621;76;21257;-78
2021/09/21 10:58:35;;;;;;;3.87;3.40;;;20.80;99.90;;;;;;1842140;76;21507;-78
2021/09/21 11:01:01;;;;;;;3.25;2.90;;;20.00;99.90;;;;;;1841551;77;21507;-76
2021/09/21 11:03:27;;;;;;;4.33;2.80;;;20.60;99.90;;;;;;1843262;78;21495;-78
2021/09/21 11:05:53;;;;;;;4.03;3.40;;;20.50;99.90;;;;;;1841785;76;21577;-79
2021/09/21 11:08:19;;;;;;;6.67;3.58;;;20.70;99.90;;;;;;1843032;77;21138;-76
2021/09/21 11:10:49;;;;;;;3.08;2.85;;;19.90;99.90;;;;;;1843069;78;21165;-77
2021/09/21 11:13:13;;;;;;;4.75;3.15;;;20.20;99.90;;;;;;1842120;78;21202;-75
2021/09/21 11:15:39;;;;;;;6.20;3.40;;;21.30;99.90;;;;;;1842482;77;21169;-78
2021/09/21 11:18:05;;;;;;;6.92;3.40;;;21.80;99.90;;;;;;1843101;76;21102;-78
2021/09/21 11:20:32;;;;;;;3.50;3.20;;;21.70;99.90;;;;;;1842524;78;21749;-78
2021/09/21 11:22:59;;;;;;;5.65;3.08;;;21.60;99.90;;;;;;1839259;77;21123;-79
2021/09/21 11:25:25;;;;;;;2.90;2.70;;;22.20;99.90;;;;;;1842610;77;21168;-78
2021/09/21 11:27:52;;;;;;;4.03;2.92;;;21.80;99.90;;;;;;1842016;77;21209;-79
2021/09/21 11:30:18;;;;;;;4.83;3.60;;;21.70;99.90;;;;;;1843520;76;21173;-80
2021/09/21 11:32:44;;;;;;;3.40;3.10;;;21.00;99.90;;;;;;1842503;76;21063;-81
2021/09/21 11:35:10;;;;;;;5.55;2.60;;;20.30;99.90;;;;;;1844465;78;21087;-82
2021/09/21 11:37:38;;;;;;;3.72;3.08;;;20.70;99.90;;;;;;1843469;78;21099;-81
2021/09/21 11:40:04;;;;;;;4.30;3.02;;;20.60;99.90;;;;;;1844117;77;21123;-83
2021/09/21 11:42:30;;;;;;;3.50;3.20;;;20.00;99.90;;;;;;1842868;76;21126;-81
2021/09/21 11:44:56;;;;;;;5.92;3.40;;;19.60;99.90;;;;;;1843095;77;21104;-82
2021/09/21 11:47:22;;;;;;;4.35;3.37;;;19.60;99.90;;;;;;1843339;77;21091;-82
2021/09/21 11:49:48;;;;;;;3.42;2.90;;;19.40;99.90;;;;;;1843039;77;21487;-81
2021/09/21 11:52:15;;;;;;;4.97;3.65;;;19.60;99.90;;;;;;1844562;77;21620;-80
2021/09/21 11:54:41;;;;;;;3.60;3.22;;;19.90;99.90;;;;;;1842901;77;21460;-80
2021/09/21 11:57:11;;;;;;;9.20;2.98;;;20.50;99.90;;;;;;1842998;76;21447;-82
2021/09/21 11:59:35;;;;;;;3.02;2.77;;;20.70;99.90;;;;;;1841249;76;21116;-83
2021/09/21 12:02:04;;;;;;;4.40;3.00;;;20.80;99.90;;;;;;1843694;78;21176;-83
2021/09/21 12:04:30;;;;;;;3.60;3.30;;;20.60;99.90;;;;;;1842701;76;21233;-83
2021/09/21 12:06:56;;;;;;;3.52;3.22;;;20.50;99.90;;;;;;1843269;76;21098;-83
2021/09/21 12:09:22;;;;;;;3.22;3.00;;;19.90;99.90;;;;;;1843343;78;21079;-81
2021/09/21 12:11:48;;;;;;;9.20;3.20;;;20.20;99.90;;;;;;1842390;76;21227;-83
2021/09/21 12:14:15;;;;;;;3.37;3.08;;;20.10;99.90;;;;;;1845067;77;21164;-82
2021/09/21 12:16:41;;;;;;;4.58;2.87;;;20.50;99.90;;;;;;1843744;77;21098;-81
2021/09/21 12:19:07;;;;;;;6.35;3.40;;;20.80;99.90;;;;;;1842426;78;21124;-81
2021/09/21 12:21:35;;;;;;;4.22;3.25;;;20.80;99.90;;;;;;1843730;78;21075;-84
2021/09/21 12:24:01;;;;;;;4.17;2.95;;;19.60;99.90;;;;;;1843869;77;21194;-82
2021/09/21 12:26:27;;;;;;;3.90;3.00;;;19.90;99.90;;;;;;1843630;76;21090;-82
2021/09/21 12:28:53;;;;;;;8.05;3.00;;;20.00;99.90;;;;;;1843092;76;21088;-83
2021/09/21 12:31:19;;;;;;;2.98;2.75;;;20.10;99.90;;;;;;1842928;78;21142;-79
2021/09/21 12:33:49;;;;;;;3.92;2.98;;;20.30;99.90;;;;;;1842252;77;21315;-78
2021/09/21 12:36:13;;;;;;;6.15;3.75;;;20.60;99.90;;;;;;1836502;78;21118;-82
2021/09/21 12:38:39;;;;;;;5.10;3.35;;;21.80;99.90;;;;;;1843075;76;21177;-78
2021/09/21 12:41:05;;;;;;;3.30;3.00;;;22.60;99.90;;;;;;1844534;76;21082;-78
2021/09/21 12:43:32;;;;;;;3.33;3.02;;;23.40;99.90;;;;;;1842492;76;21157;-79
2021/09/21 12:45:58;;;;;;;3.83;2.60;;;24.60;99.90;;;;;;1842523;78;21110;-79
2021/09/21 12:48:24;;;;;;;3.87;2.70;;;24.70;99.90;;;;;;1842487;76;21165;-79
2021/09/21 12:50:51;;;;;;;7.47;2.83;;;24.00;99.40;;;;;;1841961;76;21543;-79